Ardara, Pennsylvania
Current Conditions -  °F | °C
As of 9:53 AM on Saturday 01 Nov 2014 (Local Time) from KAGC Reporting Station
Light Rain Light Rain  
Wind Chill: 35°   Ceiling: 900
Heat Index: 41°   Visibility: 4mi
Dew Point: 37°   Wind: 10mph
Humidity: 86%   Direction: 350°N
Pressure: 29.98"   Gusts: 18mph
Location:  40.36°N, 79.73°W
Report Text: KAGC 011353Z 35009G16KT 4SM -RA BR OVC009 05/03 A2998 RMK AO2 RAB33 CIG 006V013 SLP163 P0001 T00500028
Loading
Personal Weather Stations






























Interactive Weather Map New forecast layout! Learn more

10-Day Weather Forecast

Advertisements
Track Severe Weather on mobile